Time;durP1;ratioP1;P1;durP2;ratioP2;P2;SDS_P1;SDS_P2;PMS_P1;PMS_P2;Temp;Humidity;BMP_temperature;BMP_pressure;BME280_temperature;BME280_humidity;BME280_pressure;Samples;Min_cycle;Max_cycle;Signal;HPM_P1;HPM_P2
2021/08/28 00:02:01;;;;;;;;;;;;;;;19.14;54.25;100362.28;5118683;28;779;-56
2021/08/28 00:04:27;;;;;;;;;;;;;;;19.38;56.01;100366.84;5118671;28;1979;-47
2021/08/28 00:06:52;;;;;;;;;;;;;;;19.53;57.55;100363.00;5117868;28;1003;-56
2021/08/28 00:09:17;;;;;;;;;;;;;;;19.71;58.48;100355.75;5118156;28;755;-48
2021/08/28 00:11:43;;;;;;;;;;;;;;;19.87;58.92;100361.84;5118255;28;981;-49
2021/08/28 00:14:08;;;;;;;;;;;;;;;20.02;59.32;100362.66;5117993;28;831;-47
2021/08/28 00:16:34;;;;;;;;;;;;;;;20.06;59.93;100358.16;5118422;28;750;-47
2021/08/28 00:18:59;;;;;;;;;;;;;;;20.02;60.58;100369.00;5118211;28;791;-46
2021/08/28 00:21:25;;;;;;;;;;;;;;;20.28;60.38;100371.22;5117618;28;751;-54
2021/08/28 00:23:50;;;;;;;;;;;;;;;20.29;60.73;100364.59;5118495;28;1905;-54
2021/08/28 00:26:15;;;;;;;;;;;;;;;20.41;60.37;100373.16;5117954;28;958;-56
2021/08/28 00:28:41;;;;;;;;;;;;;;;20.37;59.05;100374.91;5115016;28;1408;-55
2021/08/28 00:31:06;;;;;;;;;;;;;;;19.83;56.95;100378.19;5118235;28;798;-52
2021/08/28 00:33:33;;;;;;;;;;;;;;;19.45;54.57;100372.78;5101591;28;803;-55
2021/08/28 00:35:58;;;;;;;;;;;;;;;19.12;52.67;100374.72;5097570;28;863;-48
2021/08/28 00:38:23;;;;;;;;;;;;;;;19.01;50.64;100378.75;5097351;28;851;-48
2021/08/28 00:40:49;;;;;;;;;;;;;;;18.52;49.38;100372.56;5079582;28;1114;-47
2021/08/28 00:43:14;;;;;;;;;;;;;;;18.31;48.07;100378.31;5096199;28;1188;-55
2021/08/28 00:45:40;;;;;;;;;;;;;;;18.26;48.66;100378.41;5117841;28;1917;-46
2021/08/28 00:48:06;;;;;;;;;;;;;;;18.63;52.44;100374.06;5117541;28;743;-53
2021/08/28 00:50:33;;;;;;;;;;;;;;;19.28;54.76;100378.88;5117848;28;1625;-48
2021/08/28 00:52:59;;;;;;;;;;;;;;;19.51;56.95;100384.53;5117988;28;821;-48
2021/08/28 00:55:25;;;;;;;;;;;;;;;19.66;58.23;100380.69;5098961;28;1122;-50
2021/08/28 00:57:50;;;;;;;;;;;;;;;19.91;59.01;100379.44;5116952;28;1025;-55
2021/08/28 01:00:16;;;;;;;;;;;;;;;19.95;60.29;100379.59;5098946;28;1109;-46
2021/08/28 01:02:42;;;;;;;;;;;;;;;20.11;60.60;100375.44;5117391;28;751;-48
2021/08/28 01:05:10;;;;;;;;;;;;;;;20.28;60.86;100374.00;5099253;28;1933;-49
2021/08/28 01:08:05;;;;;;;;;;;;;;;20.37;61.22;100379.59;5099426;28;1187;-59
2021/08/28 01:10:57;;;;;;;;;;;;;;;20.59;61.24;100379.66;5116689;28;938;-52
2021/08/28 01:13:49;;;;;;;;;;;;;;;20.41;59.95;100375.94;5095948;28;1327;-45
2021/08/28 01:16:15;;;;;;;;;;;;;;;20.17;57.29;100376.97;5078913;28;1209;-46
2021/08/28 01:18:41;;;;;;;;;;;;;;;19.52;55.54;100371.56;5095719;28;1161;-53
2021/08/28 01:21:13;;;;;;;;;;;;;;;19.26;53.04;100380.28;5095600;28;756;-44
2021/08/28 01:24:01;;;;;;;;;;;;;;;19.09;50.21;100387.16;5095253;28;1901;-44
2021/08/28 01:27:06;;;;;;;;;;;;;;;18.56;48.43;100379.91;5088042;28;1560;-45
2021/08/28 01:29:32;;;;;;;;;;;;;;;18.44;48.15;100380.38;5098661;28;1145;-48
2021/08/28 01:31:58;;;;;;;;;;;;;;;18.76;51.46;100378.00;5116908;28;760;-44
2021/08/28 01:34:24;;;;;;;;;;;;;;;19.25;54.50;100379.47;5098644;28;1331;-44
2021/08/28 01:36:49;;;;;;;;;;;;;;;19.55;56.49;100382.00;5099086;28;1248;-46
2021/08/28 01:39:38;;;;;;;;;;;;;;;19.74;58.39;100382.75;5093703;28;1297;-45
2021/08/28 01:42:04;;;;;;;;;;;;;;;19.90;59.64;100376.97;5081074;28;1398;-45
2021/08/28 01:44:31;;;;;;;;;;;;;;;20.07;60.32;100382.69;5082272;28;1901;-51
2021/08/28 01:46:57;;;;;;;;;;;;;;;20.20;60.52;100380.22;5098763;28;1296;-46
2021/08/28 01:49:23;;;;;;;;;;;;;;;20.44;60.62;100380.00;5116451;28;1573;-46
2021/08/28 01:51:48;;;;;;;;;;;;;;;20.41;61.44;100375.94;5098251;28;938;-50
2021/08/28 01:54:40;;;;;;;;;;;;;;;20.58;61.06;100379.97;5113625;28;1379;-45
2021/08/28 01:57:05;;;;;;;;;;;;;;;20.48;59.53;100375.47;5116254;28;950;-56
2021/08/28 01:59:33;;;;;;;;;;;;;;;20.06;57.28;100366.44;5081940;28;1508;-56
2021/08/28 02:02:22;;;;;;;;;;;;;;;19.54;54.38;100363.81;5085197;28;1279;-45
2021/08/28 02:04:53;;;;;;;;;;;;;;;19.12;52.22;100363.69;5098108;28;1910;-45
2021/08/28 02:07:21;;;;;;;;;;;;;;;18.92;50.09;100371.16;5114125;28;1504;-47
2021/08/28 02:09:50;;;;;;;;;;;;;;;18.73;48.03;100360.16;5118207;28;823;-46
2021/08/28 02:12:34;;;;;;;;;;;;;;;18.52;47.87;100365.09;5084024;28;1244;-54
2021/08/28 02:15:14;;;;;;;;;;;;;;;18.41;50.45;100361.69;5102247;28;764;-46
2021/08/28 02:17:44;;;;;;;;;;;;;;;19.04;54.38;100362.47;5102205;28;1613;-46
2021/08/28 02:20:10;;;;;;;;;;;;;;;19.52;56.64;100350.34;5084786;28;1249;-45
2021/08/28 02:22:50;;;;;;;;;;;;;;;19.67;58.90;100358.31;5102629;28;1064;-53
2021/08/28 02:25:37;;;;;;;;;;;;;;;19.83;59.92;100356.09;5104810;28;1971;-46
2021/08/28 02:28:04;;;;;;;;;;;;;;;20.08;60.29;100355.91;5101587;28;1212;-46
2021/08/28 02:30:30;;;;;;;;;;;;;;;20.15;60.85;100357.13;5084700;28;1218;-45
2021/08/28 02:33:06;;;;;;;;;;;;;;;20.44;60.86;100364.25;5096110;28;1268;-57
2021/08/28 02:35:33;;;;;;;;;;;;;;;20.39;61.58;100372.66;5065539;28;1270;-56
2021/08/28 02:37:59;;;;;;;;;;;;;;;20.45;60.73;100368.63;5065011;28;1202;-45
2021/08/28 02:40:25;;;;;;;;;;;;;;;20.14;58.30;100366.53;5064954;28;1203;-46
2021/08/28 02:42:50;;;;;;;;;;;;;;;19.83;55.28;100375.41;5111901;28;1277;-51
2021/08/28 02:45:17;;;;;;;;;;;;;;;19.22;53.12;100374.53;5100338;28;1982;-45
2021/08/28 02:47:50;;;;;;;;;;;;;;;18.96;51.46;100383.22;5085699;28;1533;-45
2021/08/28 02:50:16;;;;;;;;;;;;;;;18.67;49.05;100388.88;5119773;28;1734;-47
2021/08/28 02:52:49;;;;;;;;;;;;;;;18.35;47.77;100387.63;5086058;28;1368;-45
2021/08/28 02:55:15;;;;;;;;;;;;;;;18.18;48.19;100396.38;5108907;28;1396;-57
2021/08/28 02:57:48;;;;;;;;;;;;;;;18.50;50.28;100399.59;5111768;28;967;-51
2021/08/28 03:00:16;;;;;;;;;;;;;;;18.96;54.30;100390.69;5085111;28;1233;-47
2021/08/28 03:02:42;;;;;;;;;;;;;;;19.40;55.95;100396.88;5081253;28;969;-53
2021/08/28 03:05:08;;;;;;;;;;;;;;;19.51;57.99;100400.28;5064442;28;1989;-45
2021/08/28 03:07:33;;;;;;;;;;;;;;;19.69;59.74;100399.38;5098880;28;1102;-43
2021/08/28 03:09:59;;;;;;;;;;;;;;;20.00;60.07;100416.19;5064200;28;1420;-51
2021/08/28 03:12:24;;;;;;;;;;;;;;;20.13;60.60;100413.75;5072457;28;1346;-52
2021/08/28 03:14:52;;;;;;;;;;;;;;;20.25;60.84;100416.03;5064761;28;1563;-45
2021/08/28 03:17:17;;;;;;;;;;;;;;;20.61;60.06;100412.50;5082490;28;1357;-51
2021/08/28 03:19:43;;;;;;;;;;;;;;;20.50;61.12;100418.25;5067658;28;1421;-45
2021/08/28 03:22:11;;;;;;;;;;;;;;;20.49;61.63;100415.78;5089849;28;1347;-45
2021/08/28 03:24:37;;;;;;;;;;;;;;;20.79;60.11;100425.41;5064352;28;1918;-50
2021/08/28 03:27:08;;;;;;;;;;;;;;;20.38;58.14;100423.47;5093672;28;1153;-48
2021/08/28 03:29:34;;;;;;;;;;;;;;;20.02;56.27;100429.72;5101409;28;1370;-45
2021/08/28 03:32:00;;;;;;;;;;;;;;;19.73;53.65;100432.72;5075263;28;1555;-44
2021/08/28 03:34:26;;;;;;;;;;;;;;;19.59;52.25;100438.19;5085190;28;1265;-49
2021/08/28 03:36:52;;;;;;;;;;;;;;;19.26;50.33;100446.44;5080518;28;1150;-47
2021/08/28 03:39:18;;;;;;;;;;;;;;;18.71;50.58;100447.75;5063999;28;808;-45
2021/08/28 03:41:44;;;;;;;;;;;;;;;18.72;49.88;100451.31;5079712;28;1238;-46
2021/08/28 03:44:13;;;;;;;;;;;;;;;18.68;50.47;100447.50;5080824;28;1988;-46
2021/08/28 03:46:39;;;;;;;;;;;;;;;18.70;51.43;100451.63;5098128;28;751;-45
2021/08/28 03:49:05;;;;;;;;;;;;;;;18.84;52.18;100459.97;5100728;28;1672;-46
2021/08/28 03:51:31;;;;;;;;;;;;;;;18.80;52.83;100459.75;5100505;28;1299;-48
2021/08/28 03:53:56;;;;;;;;;;;;;;;18.74;53.25;100458.16;5100048;28;1211;-56
2021/08/28 03:56:22;;;;;;;;;;;;;;;19.01;54.02;100456.72;5112719;28;1332;-53
2021/08/28 03:58:47;;;;;;;;;;;;;;;19.07;55.42;100462.97;5100669;28;1164;-45
2021/08/28 04:01:13;;;;;;;;;;;;;;;19.31;56.34;100466.47;5100550;28;1154;-45
2021/08/28 04:03:40;;;;;;;;;;;;;;;19.60;56.95;100470.16;5100138;28;1521;-48
2021/08/28 04:06:05;;;;;;;;;;;;;;;19.71;57.66;100474.38;5100105;28;1918;-52
2021/08/28 04:08:34;;;;;;;;;;;;;;;19.84;58.11;100472.81;5100398;28;1170;-45
2021/08/28 04:11:00;;;;;;;;;;;;;;;19.80;58.92;100472.59;5118537;28;807;-45
2021/08/28 04:13:28;;;;;;;;;;;;;;;19.89;59.12;100474.66;5099645;28;947;-46
2021/08/28 04:15:54;;;;;;;;;;;;;;;20.09;58.98;100468.78;5100331;28;1144;-46
2021/08/28 04:18:36;;;;;;;;;;;;;;;20.25;58.98;100474.00;5100201;28;1185;-56
2021/08/28 04:21:21;;;;;;;;;;;;;;;20.14;59.77;100476.94;5099900;28;2116;-52
2021/08/28 04:23:47;;;;;;;;;;;;;;;20.12;59.97;100479.19;5117999;28;819;-46
2021/08/28 04:26:15;;;;;;;;;;;;;;;20.22;59.97;100477.38;5117328;28;1981;-45
2021/08/28 04:28:41;;;;;;;;;;;;;;;20.33;59.74;100476.06;5099620;28;1317;-51
2021/08/28 04:31:07;;;;;;;;;;;;;;;20.39;59.00;100483.09;5099131;28;1241;-46
2021/08/28 04:33:32;;;;;;;;;;;;;;;20.17;57.50;100481.03;5099898;28;1185;-45
2021/08/28 04:35:58;;;;;;;;;;;;;;;19.67;56.14;100485.22;5099841;28;1145;-45
2021/08/28 04:38:24;;;;;;;;;;;;;;;19.57;53.90;100487.31;5099841;28;1146;-51
2021/08/28 04:40:53;;;;;;;;;;;;;;;19.13;52.32;100486.59;5099630;28;1291;-49
2021/08/28 04:43:22;;;;;;;;;;;;;;;18.88;51.22;100485.84;5099283;28;1284;-50
2021/08/28 04:46:07;;;;;;;;;;;;;;;18.79;49.98;100482.09;5117236;28;1913;-48
2021/08/28 04:48:46;;;;;;;;;;;;;;;18.54;50.00;100477.72;5099584;28;1629;-45
2021/08/28 04:51:30;;;;;;;;;;;;;;;18.37;51.51;100490.03;5117635;28;613;-51
2021/08/28 04:53:56;;;;;;;;;;;;;;;18.71;51.50;100480.81;5099360;28;1184;-56
2021/08/28 04:56:21;;;;;;;;;;;;;;;18.71;52.17;100480.81;5099007;28;1224;-55
2021/08/28 04:58:47;;;;;;;;;;;;;;;18.59;53.08;100478.47;5117681;28;727;-58
2021/08/28 05:01:31;;;;;;;;;;;;;;;18.83;53.30;100482.31;5117683;28;601;-48
2021/08/28 05:04:15;;;;;;;;;;;;;;;18.98;54.65;100490.38;5098995;28;1914;-55
2021/08/28 05:06:42;;;;;;;;;;;;;;;19.21;55.84;100482.34;5099163;28;1440;-54
2021/08/28 05:09:10;;;;;;;;;;;;;;;19.40;57.37;100483.16;5098934;28;1415;-57
2021/08/28 05:11:36;;;;;;;;;;;;;;;19.52;58.31;100490.13;5098946;28;1264;-47
2021/08/28 05:14:02;;;;;;;;;;;;;;;19.71;58.86;100490.13;5099206;28;796;-49
2021/08/28 05:16:28;;;;;;;;;;;;;;;19.81;59.15;100493.56;5116652;28;787;-46
2021/08/28 05:18:53;;;;;;;;;;;;;;;19.93;59.68;100493.06;5098061;28;1222;-50
2021/08/28 05:21:22;;;;;;;;;;;;;;;20.01;59.90;100499.84;5099304;28;1267;-45
2021/08/28 05:24:06;;;;;;;;;;;;;;;20.17;59.76;100498.44;5116590;28;1965;-45
2021/08/28 05:26:44;;;;;;;;;;;;;;;20.36;59.59;100500.28;5098364;28;1233;-45
2021/08/28 05:29:10;;;;;;;;;;;;;;;20.40;59.83;100494.97;5099011;28;1122;-44
2021/08/28 05:31:35;;;;;;;;;;;;;;;20.36;60.31;100494.75;5098786;28;1173;-48
2021/08/28 05:34:03;;;;;;;;;;;;;;;20.29;58.97;100499.88;5099018;28;1141;-54
2021/08/28 05:36:48;;;;;;;;;;;;;;;19.95;56.13;100501.03;5116935;28;994;-46
2021/08/28 05:39:42;;;;;;;;;;;;;;;19.43;53.62;100501.88;5043629;28;1098;-50
2021/08/28 05:42:08;;;;;;;;;;;;;;;18.94;51.81;100503.13;5092322;28;1162;-45
2021/08/28 05:44:34;;;;;;;;;;;;;;;18.89;49.50;100505.97;5097270;28;1901;-48
2021/08/28 05:46:59;;;;;;;;;;;;;;;18.64;48.40;100497.69;5116489;28;819;-43
2021/08/28 05:49:25;;;;;;;;;;;;;;;18.42;48.96;100494.66;5098642;28;1578;-46
2021/08/28 05:51:55;;;;;;;;;;;;;;;18.96;50.73;100498.16;5098596;28;1228;-51
2021/08/28 05:54:21;;;;;;;;;;;;;;;19.34;54.85;100498.16;5116071;28;775;-44
2021/08/28 05:56:50;;;;;;;;;;;;;;;19.69;57.14;100497.88;5116598;28;955;-43
2021/08/28 05:59:16;;;;;;;;;;;;;;;19.97;58.96;100496.03;5098759;28;1122;-50
2021/08/28 06:01:42;;;;;;;;;;;;;;;20.09;60.07;100501.91;5098419;28;958;-45
2021/08/28 06:04:08;;;;;;;;;;;;;;;20.13;60.76;100497.41;5116492;28;1978;-43
2021/08/28 06:07:06;;;;;;;;;;;;;;;20.37;61.15;100496.41;5080332;28;1115;-49
2021/08/28 06:09:52;;;;;;;;;;;;;;;20.49;61.36;100499.47;5116669;28;1058;-46
2021/08/28 06:12:36;;;;;;;;;;;;;;;20.42;61.09;100493.53;5116427;28;942;-44
2021/08/28 06:15:22;;;;;;;;;;;;;;;20.13;58.64;100494.66;5099375;28;578;-53
2021/08/28 06:18:17;;;;;;;;;;;;;;;19.58;55.36;100492.50;5080702;28;1024;-48
2021/08/28 06:20:45;;;;;;;;;;;;;;;19.19;53.06;100496.44;5096306;28;700;-45
2021/08/28 06:23:11;;;;;;;;;;;;;;;19.06;50.47;100497.19;5078152;28;1312;-45
2021/08/28 06:25:55;;;;;;;;;;;;;;;18.70;48.69;100492.94;5095921;28;1905;-55
2021/08/28 06:28:21;;;;;;;;;;;;;;;18.55;48.57;100487.59;5095717;28;1362;-46
2021/08/28 06:30:47;;;;;;;;;;;;;;;18.64;48.30;100489.41;5098280;28;1037;-46
2021/08/28 06:33:12;;;;;;;;;;;;;;;19.25;52.68;100494.41;5116278;28;799;-46
2021/08/28 06:35:41;;;;;;;;;;;;;;;19.52;56.16;100485.47;5098246;28;1283;-48
2021/08/28 06:38:26;;;;;;;;;;;;;;;19.76;58.88;100488.09;5098269;28;1305;-46
2021/08/28 06:41:10;;;;;;;;;;;;;;;19.98;60.35;100489.41;5116395;28;621;-43
2021/08/28 06:43:54;;;;;;;;;;;;;;;20.31;60.77;100487.41;5116425;28;719;-46
2021/08/28 06:46:46;;;;;;;;;;;;;;;20.55;61.11;100480.84;5084549;28;1066;-45
2021/08/28 06:49:29;;;;;;;;;;;;;;;20.69;61.37;100483.63;5116149;28;1617;-48
2021/08/28 06:52:13;;;;;;;;;;;;;;;20.51;61.25;100483.41;5116057;28;633;-48
2021/08/28 06:54:57;;;;;;;;;;;;;;;20.20;58.18;100474.09;5118582;28;601;-48
2021/08/28 06:57:41;;;;;;;;;;;;;;;19.82;55.11;100486.94;5119211;28;926;-48
2021/08/28 07:00:39;;;;;;;;;;;;;;;19.46;52.37;100484.72;5074171;28;1304;-51
2021/08/28 07:03:24;;;;;;;;;;;;;;;19.13;50.14;100476.38;5087898;28;1134;-47
2021/08/28 07:05:50;;;;;;;;;;;;;;;18.54;49.12;100477.72;5119380;28;1905;-48
2021/08/28 07:08:22;;;;;;;;;;;;;;;18.53;48.52;100467.81;5101333;28;1455;-46
2021/08/28 07:10:49;;;;;;;;;;;;;;;18.60;49.55;100471.03;5101514;28;1385;-45
2021/08/28 07:13:14;;;;;;;;;;;;;;;18.76;52.31;100468.88;5119490;28;934;-45
2021/08/28 07:15:40;;;;;;;;;;;;;;;19.14;54.13;100464.25;5101044;28;1264;-45
2021/08/28 07:18:11;;;;;;;;;;;;;;;19.31;56.29;100465.66;5119592;28;751;-46
2021/08/28 07:20:38;;;;;;;;;;;;;;;19.59;57.44;100460.25;5096449;28;1110;-49
2021/08/28 07:23:04;;;;;;;;;;;;;;;19.64;58.27;100455.47;5114621;28;1181;-47
2021/08/28 07:25:55;;;;;;;;;;;;;;;19.96;58.58;100451.09;5081002;28;1913;-45
2021/08/28 07:28:22;;;;;;;;;;;;;;;20.03;59.29;100452.63;5098027;28;1272;-56
2021/08/28 07:31:03;;;;;;;;;;;;;;;20.13;59.52;100456.00;5098648;28;657;-46
2021/08/28 07:33:29;;;;;;;;;;;;;;;20.25;59.74;100452.72;5086889;28;1272;-50
2021/08/28 07:35:55;;;;;;;;;;;;;;;20.40;59.53;100451.59;5100885;28;1105;-55
2021/08/28 07:38:20;;;;;;;;;;;;;;;20.32;60.07;100444.03;5118438;28;732;-51
2021/08/28 07:40:46;;;;;;;;;;;;;;;20.22;58.04;100445.06;5119333;28;743;-51
2021/08/28 07:43:11;;;;;;;;;;;;;;;19.80;56.04;100442.25;5100697;28;1213;-46
2021/08/28 07:45:43;;;;;;;;;;;;;;;19.62;53.04;100443.09;5100423;28;1990;-50
2021/08/28 07:48:13;;;;;;;;;;;;;;;18.95;51.63;100435.88;5100795;28;1157;-51
2021/08/28 07:50:38;;;;;;;;;;;;;;;18.94;49.44;100432.31;5100327;28;1969;-48
2021/08/28 07:53:04;;;;;;;;;;;;;;;18.50;48.39;100435.38;5118531;28;798;-50
2021/08/28 07:55:35;;;;;;;;;;;;;;;18.30;48.24;100429.81;5100160;28;1889;-46
2021/08/28 07:58:00;;;;;;;;;;;;;;;18.47;50.00;100434.84;5100034;28;1265;-46
2021/08/28 08:00:26;;;;;;;;;;;;;;;19.09;53.49;100439.53;5118370;28;767;-46
2021/08/28 08:02:51;;;;;;;;;;;;;;;19.51;57.41;100438.88;5100356;28;1256;-52
2021/08/28 08:05:37;;;;;;;;;;;;;;;19.97;59.54;100438.91;5098595;28;1914;-47
2021/08/28 08:08:37;;;;;;;;;;;;;;;20.31;61.26;100442.41;4996305;28;1106;-48
2021/08/28 08:11:38;;;;;;;;;;;;;;;20.44;62.58;100426.94;5101765;28;1143;-45
2021/08/28 08:14:22;;;;;;;;;;;;;;;20.67;62.27;100428.69;5117965;28;661;-46
2021/08/28 08:17:07;;;;;;;;;;;;;;;20.35;60.78;100410.28;5075943;28;1127;-60
2021/08/28 08:19:52;;;;;;;;;;;;;;;19.86;57.96;100406.28;5105508;28;629;-48
2021/08/28 08:22:35;;;;;;;;;;;;;;;19.47;55.50;100417.44;5097536;28;593;-47
2021/08/28 08:25:23;;;;;;;;;;;;;;;19.13;53.70;100410.25;5096673;28;1914;-58
2021/08/28 08:28:11;;;;;;;;;;;;;;;18.99;51.42;100406.63;5097921;28;1018;-46
2021/08/28 08:31:05;;;;;;;;;;;;;;;18.72;50.51;100399.81;5097595;28;1023;-56
2021/08/28 08:33:31;;;;;;;;;;;;;;;18.66;49.43;100406.50;5079422;28;1208;-45
2021/08/28 08:35:57;;;;;;;;;;;;;;;18.50;49.08;100407.84;5079816;28;1186;-46
2021/08/28 08:38:23;;;;;;;;;;;;;;;18.47;49.35;100407.31;5097847;28;847;-58
2021/08/28 08:40:49;;;;;;;;;;;;;;;18.54;50.33;100417.16;5079195;28;1196;-48
2021/08/28 08:43:14;;;;;;;;;;;;;;;19.01;54.92;100411.81;5113800;28;978;-55
2021/08/28 08:45:41;;;;;;;;;;;;;;;19.71;57.90;100408.16;5099722;28;1901;-47
2021/08/28 08:48:07;;;;;;;;;;;;;;;20.10;60.49;100411.63;5117435;28;843;-58
2021/08/28 08:50:32;;;;;;;;;;;;;;;20.39;62.02;100405.78;5078376;28;1603;-47
2021/08/28 08:52:59;;;;;;;;;;;;;;;20.77;62.80;100410.25;5099297;28;1352;-46
2021/08/28 08:55:43;;;;;;;;;;;;;;;20.84;63.25;100405.91;5084849;28;1178;-55
2021/08/28 08:58:09;;;;;;;;;;;;;;;20.48;62.57;100408.63;5098695;28;1241;-47
2021/08/28 09:00:35;;;;;;;;;;;;;;;20.25;60.19;100410.50;5099510;28;756;-56
2021/08/28 09:03:33;;;;;;;;;;;;;;;19.83;57.27;100402.19;5071975;28;1107;-53
2021/08/28 09:06:02;;;;;;;;;;;;;;;19.72;54.13;100398.78;5117282;28;1890;-55
2021/08/28 09:08:31;;;;;;;;;;;;;;;19.38;53.09;100408.19;5098886;28;1263;-45
2021/08/28 09:10:56;;;;;;;;;;;;;;;19.06;51.91;100400.72;5117248;28;849;-55
2021/08/28 09:13:22;;;;;;;;;;;;;;;19.01;51.26;100401.63;5116575;28;1025;-47
2021/08/28 09:15:49;;;;;;;;;;;;;;;19.10;49.77;100399.81;5117420;28;859;-46
2021/08/28 09:18:14;;;;;;;;;;;;;;;18.87;50.08;100393.28;5115951;28;807;-54
2021/08/28 09:20:40;;;;;;;;;;;;;;;18.81;51.48;100392.50;5079125;28;864;-48
2021/08/28 09:23:12;;;;;;;;;;;;;;;18.79;52.67;100397.50;5097290;28;803;-44
2021/08/28 09:25:38;;;;;;;;;;;;;;;18.95;53.36;100397.31;5096620;28;1906;-47
2021/08/28 09:28:04;;;;;;;;;;;;;;;19.01;53.87;100390.59;5112110;28;1017;-55
2021/08/28 09:30:36;;;;;;;;;;;;;;;18.95;54.53;100391.81;5116734;28;882;-45
2021/08/28 09:33:03;;;;;;;;;;;;;;;19.32;54.01;100390.09;5116799;28;767;-55
2021/08/28 09:35:29;;;;;;;;;;;;;;;19.17;54.67;100387.59;5116797;28;811;-47
2021/08/28 09:37:55;;;;;;;;;;;;;;;19.03;55.10;100382.84;5116921;28;809;-54
2021/08/28 09:40:21;;;;;;;;;;;;;;;19.24;54.68;100386.09;5117280;28;778;-47
2021/08/28 09:42:52;;;;;;;;;;;;;;;19.17;54.90;100388.44;5116658;28;965;-56
2021/08/28 09:45:17;;;;;;;;;;;;;;;19.12;55.35;100370.00;5116373;28;1905;-55
2021/08/28 09:47:42;;;;;;;;;;;;;;;19.35;54.81;100370.22;5116815;28;846;-44
2021/08/28 09:50:09;;;;;;;;;;;;;;;19.21;55.22;100366.56;5098466;28;1629;-47
2021/08/28 09:52:35;;;;;;;;;;;;;;;19.37;54.74;100372.66;5116691;28;807;-46
2021/08/28 09:55:00;;;;;;;;;;;;;;;19.32;54.83;100368.88;5117171;28;806;-46
2021/08/28 09:57:27;;;;;;;;;;;;;;;19.16;55.21;100361.97;5116070;28;985;-48
2021/08/28 09:59:54;;;;;;;;;;;;;;;19.40;54.41;100350.81;5116422;28;815;-48
2021/08/28 10:02:22;;;;;;;;;;;;;;;19.27;54.86;100368.16;5098578;28;1512;-48
2021/08/28 10:04:47;;;;;;;;;;;;;;;19.35;54.45;100363.88;5116462;28;1909;-45
2021/08/28 10:07:16;;;;;;;;;;;;;;;19.18;54.69;100357.00;5116373;28;1142;-48
2021/08/28 10:09:41;;;;;;;;;;;;;;;19.19;54.56;100360.56;5098487;28;1278;-47
2021/08/28 10:12:07;;;;;;;;;;;;;;;19.23;54.67;100353.31;5097497;28;966;-44
2021/08/28 10:14:32;;;;;;;;;;;;;;;19.24;54.49;100354.97;5116868;28;811;-45
2021/08/28 10:16:57;;;;;;;;;;;;;;;19.33;54.17;100353.16;5098183;28;905;-56
2021/08/28 10:19:24;;;;;;;;;;;;;;;19.18;54.96;100358.91;5098160;28;779;-55
2021/08/28 10:21:50;;;;;;;;;;;;;;;19.40;54.50;100358.28;5098404;28;1047;-44
2021/08/28 10:24:15;;;;;;;;;;;;;;;19.40;54.58;100353.56;5097691;28;1992;-56
2021/08/28 10:26:42;;;;;;;;;;;;;;;19.14;55.38;100354.00;5116155;28;1021;-45
2021/08/28 10:29:08;;;;;;;;;;;;;;;19.27;55.62;100357.13;5117271;28;858;-54
2021/08/28 10:31:33;;;;;;;;;;;;;;;19.22;55.63;100370.97;5101892;28;825;-46
2021/08/28 10:33:58;;;;;;;;;;;;;;;19.32;55.41;100362.53;5102157;28;807;-43
2021/08/28 10:36:24;;;;;;;;;;;;;;;19.36;55.36;100362.75;5101499;28;828;-54
2021/08/28 10:38:49;;;;;;;;;;;;;;;19.34;55.36;100370.53;5120076;28;850;-48
2021/08/28 10:41:15;;;;;;;;;;;;;;;19.31;55.16;100374.69;5101907;28;1014;-48
2021/08/28 10:43:41;;;;;;;;;;;;;;;19.30;55.39;100364.78;5101981;28;806;-53
2021/08/28 10:46:20;;;;;;;;;;;;;;;19.25;55.62;100373.97;5101618;28;1917;-45
2021/08/28 10:49:08;;;;;;;;;;;;;;;19.34;55.16;100368.56;5119348;28;1566;-46
2021/08/28 10:51:34;;;;;;;;;;;;;;;19.31;55.52;100366.41;5118864;28;1208;-56
2021/08/28 10:54:03;;;;;;;;;;;;;;;19.18;55.51;100376.28;5120001;28;807;-44
2021/08/28 10:56:38;;;;;;;;;;;;;;;19.29;55.14;100374.16;5118904;28;958;-45
2021/08/28 10:59:26;;;;;;;;;;;;;;;19.25;55.12;100378.63;5119743;28;807;-51
2021/08/28 11:01:51;;;;;;;;;;;;;;;19.27;55.28;100381.94;5119931;28;816;-47
2021/08/28 11:04:34;;;;;;;;;;;;;;;19.31;55.02;100370.00;5119095;28;1910;-44
2021/08/28 11:07:18;;;;;;;;;;;;;;;19.30;55.01;100373.06;5119772;28;807;-45
2021/08/28 11:10:02;;;;;;;;;;;;;;;19.29;54.78;100363.13;5119618;28;822;-46
2021/08/28 11:12:27;;;;;;;;;;;;;;;19.27;54.71;100371.72;5119045;28;958;-50
2021/08/28 11:14:53;;;;;;;;;;;;;;;19.14;55.02;100365.03;5119909;28;748;-54
2021/08/28 11:17:18;;;;;;;;;;;;;;;19.16;54.60;100359.22;5119036;28;771;-48
2021/08/28 11:19:48;;;;;;;;;;;;;;;19.06;54.96;100354.69;5100912;28;1472;-53
2021/08/28 11:22:20;;;;;;;;;;;;;;;19.21;54.58;100352.78;5119502;28;759;-55
2021/08/28 11:24:53;;;;;;;;;;;;;;;19.15;54.51;100349.31;5119205;28;1910;-47
2021/08/28 11:27:22;;;;;;;;;;;;;;;19.29;54.27;100352.09;5118649;28;1017;-49
2021/08/28 11:29:48;;;;;;;;;;;;;;;19.11;54.75;100351.03;5097308;28;1444;-46
2021/08/28 11:32:14;;;;;;;;;;;;;;;19.17;54.43;100352.59;5098660;28;779;-49
2021/08/28 11:34:43;;;;;;;;;;;;;;;19.26;54.26;100342.50;5098897;28;813;-54
2021/08/28 11:37:23;;;;;;;;;;;;;;;19.04;54.81;100356.09;5098654;28;811;-45
2021/08/28 11:39:49;;;;;;;;;;;;;;;19.10;54.35;100344.72;5098815;28;819;-44
2021/08/28 11:42:14;;;;;;;;;;;;;;;19.40;53.57;100347.25;5105656;28;947;-55
2021/08/28 11:44:40;;;;;;;;;;;;;;;19.25;54.16;100349.16;5100300;28;1985;-46
2021/08/28 11:47:09;;;;;;;;;;;;;;;19.30;53.94;100353.75;5118884;28;823;-49
2021/08/28 11:49:37;;;;;;;;;;;;;;;19.30;53.94;100353.75;5119039;28;1589;-54
2021/08/28 11:52:03;;;;;;;;;;;;;;;19.30;53.93;100357.31;5118681;28;768;-45
2021/08/28 11:54:31;;;;;;;;;;;;;;;19.21;54.22;100344.53;5118864;28;779;-45
2021/08/28 11:56:57;;;;;;;;;;;;;;;19.27;54.04;100349.66;5118017;28;990;-54
2021/08/28 11:59:35;;;;;;;;;;;;;;;19.20;54.02;100342.91;5118303;28;706;-44
2021/08/28 12:02:01;;;;;;;;;;;;;;;19.13;54.05;100351.56;5118993;28;840;-47
2021/08/28 12:04:26;;;;;;;;;;;;;;;19.15;54.11;100355.66;5118633;28;1970;-57
2021/08/28 12:06:52;;;;;;;;;;;;;;;19.08;54.11;100358.00;5118241;28;867;-45
2021/08/28 12:09:23;;;;;;;;;;;;;;;19.04;54.28;100364.38;5118667;28;1062;-45
2021/08/28 12:11:49;;;;;;;;;;;;;;;19.26;53.61;100356.28;5117834;28;955;-46
2021/08/28 12:14:14;;;;;;;;;;;;;;;19.06;54.19;100354.69;5118610;28;744;-59
2021/08/28 12:16:40;;;;;;;;;;;;;;;18.98;54.16;100349.88;5118410;28;846;-57
2021/08/28 12:19:19;;;;;;;;;;;;;;;18.98;54.64;100347.94;5099873;28;914;-51
2021/08/28 12:21:44;;;;;;;;;;;;;;;19.27;55.27;100335.06;5118116;28;751;-54
2021/08/28 12:24:20;;;;;;;;;;;;;;;19.55;56.14;100332.38;5118296;28;839;-57
2021/08/28 12:26:46;;;;;;;;;;;;;;;19.56;57.57;100331.22;5117262;28;974;-58
2021/08/28 12:29:13;;;;;;;;;;;;;;;19.70;58.21;100329.31;5118560;28;799;-58
2021/08/28 12:31:38;;;;;;;;;;;;;;;19.92;58.15;100334.16;5099845;28;1448;-50
2021/08/28 12:34:19;;;;;;;;;;;;;;;19.81;59.31;100336.28;5117593;28;763;-44
2021/08/28 12:36:45;;;;;;;;;;;;;;;19.93;59.25;100315.66;5100189;28;846;-56
2021/08/28 12:39:14;;;;;;;;;;;;;;;20.00;59.36;100322.38;5118030;28;763;-61
2021/08/28 12:41:39;;;;;;;;;;;;;;;19.97;59.96;100325.75;5116906;28;962;-46
2021/08/28 12:44:05;;;;;;;;;;;;;;;20.30;59.19;100322.88;5097568;28;886;-56
2021/08/28 12:46:32;;;;;;;;;;;;;;;20.41;58.88;100326.22;5117443;28;1914;-46
2021/08/28 12:49:07;;;;;;;;;;;;;;;20.23;59.84;100325.22;5098862;28;1703;-57
2021/08/28 12:51:33;;;;;;;;;;;;;;;20.33;59.57;100330.53;5117490;28;767;-45
2021/08/28 12:53:58;;;;;;;;;;;;;;;20.49;58.26;100319.13;5117439;28;835;-46
2021/08/28 12:56:24;;;;;;;;;;;;;;;19.92;57.38;100319.53;5116827;28;993;-46
2021/08/28 12:58:49;;;;;;;;;;;;;;;19.75;54.85;100320.13;5117430;28;831;-45
2021/08/28 13:01:15;;;;;;;;;;;;;;;19.52;52.67;100316.41;5117607;28;827;-58
2021/08/28 13:03:46;;;;;;;;;;;;;;;18.95;51.29;100317.41;5117307;28;775;-55
2021/08/28 13:06:21;;;;;;;;;;;;;;;18.56;49.53;100302.00;5117573;28;1918;-59
2021/08/28 13:08:47;;;;;;;;;;;;;;;18.52;48.37;100304.53;5117216;28;991;-58